Time;durP1;ratioP1;P1;durP2;ratioP2;P2;SDS_P1;SDS_P2;PMS_P1;PMS_P2;Temp;Humidity;BMP_temperature;BMP_pressure;BME280_temperature;BME280_humidity;BME280_pressure;Samples;Min_cycle;Max_cycle;Signal;HPM_P1;HPM_P2
2022/09/25 00:00:43;;;;;;;;;;;;;;;10.99;100.00;101726.09;5053630;28;20377;-33
2022/09/25 00:03:10;;;;;;;;;;;;;;;11.03;100.00;101728.00;5053916;28;20374;-33
2022/09/25 00:05:38;;;;;;;;;;;;;;;11.10;100.00;101729.69;5054187;28;19925;-34
2022/09/25 00:08:06;;;;;;;;;;;;;;;11.14;100.00;101723.25;5053089;28;19936;-34
2022/09/25 00:10:34;;;;;;;;;;;;;;;11.19;100.00;101722.44;5054368;28;19924;-34
2022/09/25 00:13:02;;;;;;;;;;;;;;;11.20;100.00;101722.13;5053913;28;19931;-34
2022/09/25 00:15:31;;;;;;;;;;;;;;;11.19;100.00;101720.44;5053091;28;19936;-34
2022/09/25 00:17:58;;;;;;;;;;;;;;;11.20;100.00;101726.88;5053915;28;19925;-34
2022/09/25 00:20:25;;;;;;;;;;;;;;;11.16;100.00;101721.03;5054021;28;19932;-34
2022/09/25 00:22:53;;;;;;;;;;;;;;;11.13;100.00;101727.19;5053042;28;19955;-34
2022/09/25 00:25:20;;;;;;;;;;;;;;;11.11;100.00;101721.03;5053950;28;19988;-34
2022/09/25 00:27:49;;;;;;;;;;;;;;;11.06;100.00;101718.25;5053594;28;19928;-34
2022/09/25 00:30:16;;;;;;;;;;;;;;;11.02;100.00;101723.53;5053274;28;19929;-35
2022/09/25 00:32:45;;;;;;;;;;;;;;;11.01;100.00;101718.25;5053633;28;19924;-34
2022/09/25 00:35:13;;;;;;;;;;;;;;;11.00;100.00;101719.34;5053737;28;19971;-33
2022/09/25 00:37:40;;;;;;;;;;;;;;;10.97;100.00;101722.75;5052886;28;20337;-34
2022/09/25 00:40:08;;;;;;;;;;;;;;;10.92;100.00;101723.56;5053489;28;19943;-34
2022/09/25 00:42:36;;;;;;;;;;;;;;;10.89;100.00;101720.50;5052766;28;19933;-34
2022/09/25 00:45:04;;;;;;;;;;;;;;;10.85;100.00;101722.16;5053408;28;19929;-33
2022/09/25 00:47:55;;;;;;;;;;;;;;;10.82;100.00;101725.50;5053539;28;19974;-33
2022/09/25 00:50:34;;;;;;;;;;;;;;;10.81;100.00;101735.00;5041768;28;19932;-33
2022/09/25 00:53:04;;;;;;;;;;;;;;;10.84;100.00;101731.66;5053116;28;19929;-33
2022/09/25 00:55:33;;;;;;;;;;;;;;;10.89;100.00;101729.72;5053414;28;19931;-34
2022/09/25 00:58:02;;;;;;;;;;;;;;;10.92;100.00;101736.69;5052361;28;20451;-34
2022/09/25 01:00:31;;;;;;;;;;;;;;;10.94;100.00;101728.88;5053190;28;19936;-33
2022/09/25 01:02:58;;;;;;;;;;;;;;;10.96;100.00;101727.47;5053240;28;19929;-34
2022/09/25 01:05:29;;;;;;;;;;;;;;;10.98;100.00;101730.00;5052041;28;20394;-34
2022/09/25 01:07:59;;;;;;;;;;;;;;;11.02;100.00;101736.66;5053323;28;19959;-34
2022/09/25 01:10:27;;;;;;;;;;;;;;;11.04;100.00;101735.28;5052550;28;19936;-33
2022/09/25 01:12:56;;;;;;;;;;;;;;;11.04;100.00;101729.69;5053042;28;19998;-34
2022/09/25 01:15:26;;;;;;;;;;;;;;;11.04;100.00;101723.25;5052232;28;19983;-33
2022/09/25 01:18:00;;;;;;;;;;;;;;;11.04;100.00;101723.25;5052278;28;20332;-33
2022/09/25 01:20:40;;;;;;;;;;;;;;;11.02;100.00;101726.34;5052936;28;20361;-33
2022/09/25 01:23:16;;;;;;;;;;;;;;;10.99;100.00;101721.31;5052987;28;19964;-34
2022/09/25 01:25:54;;;;;;;;;;;;;;;10.94;100.00;101726.91;5051821;28;19975;-33
2022/09/25 01:28:29;;;;;;;;;;;;;;;10.91;100.00;101723.84;5052630;28;19928;-33
2022/09/25 01:31:02;;;;;;;;;;;;;;;10.86;100.00;101721.06;5052654;28;19975;-33
2022/09/25 01:33:34;;;;;;;;;;;;;;;10.81;100.00;101721.88;5051895;28;20411;-34
2022/09/25 01:36:04;;;;;;;;;;;;;;;10.77;100.00;101714.38;5052283;28;20372;-33
2022/09/25 01:38:34;;;;;;;;;;;;;;;10.72;100.00;101717.16;5052352;28;19925;-33
2022/09/25 01:41:04;;;;;;;;;;;;;;;10.67;100.00;101704.88;5052141;28;20263;-34
2022/09/25 01:43:35;;;;;;;;;;;;;;;10.62;100.00;101707.66;5032865;28;19932;-33
2022/09/25 01:46:08;;;;;;;;;;;;;;;10.60;100.00;101707.09;5046540;28;19978;-33
2022/09/25 01:48:38;;;;;;;;;;;;;;;10.54;100.00;101702.66;5052370;28;19929;-34
2022/09/25 01:51:08;;;;;;;;;;;;;;;10.50;100.00;101697.91;5052064;28;19932;-34
2022/09/25 01:53:40;;;;;;;;;;;;;;;10.47;100.00;101706.81;5051704;28;20006;-34
2022/09/25 01:56:18;;;;;;;;;;;;;;;10.43;100.00;101712.09;5052189;28;19924;-33
2022/09/25 01:58:48;;;;;;;;;;;;;;;10.40;100.00;101712.66;5052403;28;20006;-34
2022/09/25 02:01:21;;;;;;;;;;;;;;;10.38;100.00;101714.06;5051265;28;19924;-34
2022/09/25 02:03:51;;;;;;;;;;;;;;;10.35;100.00;101709.88;5051918;28;20023;-34
2022/09/25 02:06:20;;;;;;;;;;;;;;;10.32;100.00;101704.84;5052124;28;19929;-33
2022/09/25 02:08:49;;;;;;;;;;;;;;;10.29;100.00;101699.81;5051708;28;19937;-33
2022/09/25 02:11:17;;;;;;;;;;;;;;;10.28;100.00;101703.72;5051727;28;19925;-34
2022/09/25 02:13:46;;;;;;;;;;;;;;;10.27;100.00;101700.09;5051528;28;20168;-34
2022/09/25 02:16:17;;;;;;;;;;;;;;;10.26;100.00;101687.25;5051235;28;19924;-34
2022/09/25 02:21:39;;;;;;;;;;;;;;;10.25;100.00;101687.53;5050752;28;19929;-34
2022/09/25 02:24:13;;;;;;;;;;;;;;;10.22;100.00;101697.28;5051798;28;19931;-34
2022/09/25 02:26:41;;;;;;;;;;;;;;;10.20;100.00;101695.88;5050586;28;19924;-34
2022/09/25 02:29:08;;;;;;;;;;;;;;;10.17;100.00;101697.28;5051107;28;19939;-34
2022/09/25 02:31:39;;;;;;;;;;;;;;;10.15;100.00;101701.44;5051521;28;19929;-34
2022/09/25 02:34:08;;;;;;;;;;;;;;;10.11;100.00;101703.94;5051782;28;20298;-33
2022/09/25 02:36:43;;;;;;;;;;;;;;;10.09;100.00;101699.75;5050315;28;19932;-33
2022/09/25 02:39:13;;;;;;;;;;;;;;;10.06;100.00;101695.56;5051372;28;20343;-34
2022/09/25 02:41:50;;;;;;;;;;;;;;;10.02;100.00;101698.06;5051523;28;19924;-34
2022/09/25 02:44:26;;;;;;;;;;;;;;;9.99;100.00;101695.81;5040971;28;20313;-34
2022/09/25 02:47:03;;;;;;;;;;;;;;;9.96;100.00;101701.97;5051568;28;20335;-34
2022/09/25 02:49:39;;;;;;;;;;;;;;;9.93;100.00;101696.94;5040373;28;20420;-34
2022/09/25 02:52:10;;;;;;;;;;;;;;;9.90;100.00;101702.22;5051644;28;19932;-34
2022/09/25 02:54:40;;;;;;;;;;;;;;;9.86;100.00;101701.91;5040629;28;19932;-34
2022/09/25 02:57:12;;;;;;;;;;;;;;;9.83;100.00;101710.00;5049490;28;19929;-33
2022/09/25 02:59:45;;;;;;;;;;;;;;;9.80;100.00;101719.72;5049344;28;20344;-34
2022/09/25 03:02:13;;;;;;;;;;;;;;;9.77;100.00;101711.94;5049205;28;20296;-34
2022/09/25 03:04:42;;;;;;;;;;;;;;;9.76;100.00;101713.06;5048896;28;20297;-34
2022/09/25 03:07:11;;;;;;;;;;;;;;;9.75;100.00;101710.53;5049994;28;19925;-34
2022/09/25 03:09:40;;;;;;;;;;;;;;;9.73;100.00;101713.59;5050181;28;20431;-34
2022/09/25 03:12:07;;;;;;;;;;;;;;;9.71;100.00;101707.44;5049841;28;19936;-34
2022/09/25 03:14:35;;;;;;;;;;;;;;;9.70;100.00;101704.94;5066197;28;19928;-34
2022/09/25 03:17:04;;;;;;;;;;;;;;;9.67;100.00;101709.09;5051199;28;19928;-34
2022/09/25 03:19:33;;;;;;;;;;;;;;;9.65;100.00;101708.53;5049891;28;20344;-33
2022/09/25 03:22:02;;;;;;;;;;;;;;;9.63;100.00;101710.75;5051284;28;19924;-34
2022/09/25 03:24:30;;;;;;;;;;;;;;;9.60;100.00;101712.13;5050549;28;19932;-34
2022/09/25 03:26:58;;;;;;;;;;;;;;;9.58;100.00;101710.75;5031249;28;19925;-34
2022/09/25 03:29:25;;;;;;;;;;;;;;;9.56;100.00;101716.59;5045308;28;19928;-34
2022/09/25 03:31:53;;;;;;;;;;;;;;;9.54;100.00;101704.88;5050502;28;19928;-34
2022/09/25 03:34:21;;;;;;;;;;;;;;;9.54;100.00;101709.59;5050843;28;20408;-34
2022/09/25 03:36:49;;;;;;;;;;;;;;;9.53;100.00;101703.19;5050830;28;20393;-34
2022/09/25 03:39:18;;;;;;;;;;;;;;;9.54;100.00;101706.81;5052917;28;19962;-34
2022/09/25 03:41:46;;;;;;;;;;;;;;;9.54;100.00;101712.41;5054759;28;19929;-34
2022/09/25 03:44:14;;;;;;;;;;;;;;;9.54;100.00;101707.66;5054535;28;19940;-33
2022/09/25 03:46:42;;;;;;;;;;;;;;;9.55;100.00;101706.56;5054165;28;19925;-34
2022/09/25 03:49:09;;;;;;;;;;;;;;;9.57;100.00;101709.91;5054435;28;19937;-35
2022/09/25 03:51:37;;;;;;;;;;;;;;;9.57;100.00;101707.13;5054764;28;19990;-35
2022/09/25 03:54:05;;;;;;;;;;;;;;;9.62;100.00;101706.28;5053375;28;19982;-34
2022/09/25 03:56:34;;;;;;;;;;;;;;;9.67;100.00;101706.31;5054566;28;19925;-34
2022/09/25 03:59:02;;;;;;;;;;;;;;;9.71;100.00;101701.88;5054229;28;20401;-34
2022/09/25 04:01:29;;;;;;;;;;;;;;;9.78;100.00;101699.69;5053632;28;20316;-34
2022/09/25 04:04:00;;;;;;;;;;;;;;;9.82;100.00;101700.78;5054347;28;19956;-35
2022/09/25 04:06:27;;;;;;;;;;;;;;;9.86;100.00;101696.34;5052685;28;19929;-34
2022/09/25 04:08:55;;;;;;;;;;;;;;;9.92;100.00;101683.25;5054336;28;19929;-34
2022/09/25 04:11:23;;;;;;;;;;;;;;;9.97;100.00;101680.50;5054109;28;19924;-33
2022/09/25 04:13:52;;;;;;;;;;;;;;;10.02;100.00;101677.69;5053625;28;20300;-34
2022/09/25 04:16:20;;;;;;;;;;;;;;;10.08;100.00;101670.19;5053717;28;19929;-35
2022/09/25 04:18:50;;;;;;;;;;;;;;;10.12;100.00;101679.69;5053934;28;19933;-34
2022/09/25 04:21:17;;;;;;;;;;;;;;;10.17;100.00;101679.69;5052725;28;20019;-34
2022/09/25 04:24:47;;;;;;;;;;;;;;;10.20;100.00;101679.16;5053630;28;19936;-34
2022/09/25 04:26:34;;;;;;;;;;;;;;;10.24;100.00;101672.75;5053598;28;20332;-34
2022/09/25 04:29:03;;;;;;;;;;;;;;;10.27;100.00;101679.72;5033129;28;19983;-34
2022/09/25 04:31:31;;;;;;;;;;;;;;;10.30;100.00;101684.75;5048034;28;19931;-34
2022/09/25 04:33:58;;;;;;;;;;;;;;;10.33;100.00;101671.09;5053538;28;19931;-34
2022/09/25 04:36:26;;;;;;;;;;;;;;;10.37;100.00;101679.75;5052507;28;19925;-34
2022/09/25 04:38:53;;;;;;;;;;;;;;;10.41;100.00;101671.66;5054108;28;19925;-34
2022/09/25 04:41:21;;;;;;;;;;;;;;;10.44;100.00;101671.94;5053363;28;19955;-34
2022/09/25 04:43:48;;;;;;;;;;;;;;;10.46;100.00;101675.28;5052780;28;20337;-34
2022/09/25 04:46:17;;;;;;;;;;;;;;;10.50;100.00;101670.81;5053297;28;19951;-34
2022/09/25 04:48:49;;;;;;;;;;;;;;;10.55;100.00;101672.78;5052585;28;20410;-33
2022/09/25 04:51:17;;;;;;;;;;;;;;;10.57;100.00;101674.19;5052946;28;19929;-34
2022/09/25 04:53:45;;;;;;;;;;;;;;;10.60;100.00;101661.59;5053350;28;19929;-34
2022/09/25 04:56:13;;;;;;;;;;;;;;;10.63;100.00;101666.63;5052414;28;19928;-34
2022/09/25 04:58:43;;;;;;;;;;;;;;;10.65;100.00;101664.41;5053068;28;19929;-34
2022/09/25 05:01:11;;;;;;;;;;;;;;;10.69;100.00;101671.94;5053554;28;19925;-34
2022/09/25 05:03:40;;;;;;;;;;;;;;;10.73;100.00;101665.78;5052277;28;19996;-34
2022/09/25 05:06:08;;;;;;;;;;;;;;;10.77;100.00;101666.91;5053123;28;20328;-35
2022/09/25 05:08:35;;;;;;;;;;;;;;;10.80;100.00;101664.38;5052855;28;19948;-34
2022/09/25 05:11:03;;;;;;;;;;;;;;;10.84;100.00;101664.66;5052128;28;19925;-34
2022/09/25 05:13:31;;;;;;;;;;;;;;;10.88;100.00;101668.56;5052701;28;19933;-33
2022/09/25 05:15:58;;;;;;;;;;;;;;;10.91;100.00;101668.00;5052041;28;19936;-34
2022/09/25 05:18:26;;;;;;;;;;;;;;;10.93;100.00;101665.78;5049067;28;19933;-34
2022/09/25 05:20:55;;;;;;;;;;;;;;;10.94;100.00;101681.41;5052280;28;19925;-34
2022/09/25 05:23:23;;;;;;;;;;;;;;;10.95;100.00;101697.03;5052289;28;19925;-35
2022/09/25 05:25:51;;;;;;;;;;;;;;;10.98;100.00;101696.47;5039168;28;19941;-34
2022/09/25 05:28:19;;;;;;;;;;;;;;;11.01;100.00;101693.94;5045259;28;20377;-35
2022/09/25 05:30:46;;;;;;;;;;;;;;;11.07;100.00;101688.34;5050925;28;19943;-34
2022/09/25 05:33:14;;;;;;;;;;;;;;;11.12;100.00;101679.97;5051194;28;19982;-33
2022/09/25 05:35:41;;;;;;;;;;;;;;;11.16;100.00;101681.94;5050984;28;19994;-34
2022/09/25 05:38:11;;;;;;;;;;;;;;;11.18;100.00;101685.28;5049993;28;19925;-35
2022/09/25 05:40:38;;;;;;;;;;;;;;;11.20;100.00;101684.97;5051291;28;19925;-35
2022/09/25 05:43:06;;;;;;;;;;;;;;;11.21;100.00;101679.09;5048995;28;19936;-34
2022/09/25 05:45:34;;;;;;;;;;;;;;;11.22;100.00;101677.13;5050811;28;19929;-34
2022/09/25 05:48:03;;;;;;;;;;;;;;;11.25;100.00;101676.56;5051206;28;19983;-34
2022/09/25 05:50:31;;;;;;;;;;;;;;;11.26;100.00;101676.28;5051064;28;19933;-34
2022/09/25 05:53:00;;;;;;;;;;;;;;;11.27;100.00;101666.78;5050304;28;19983;-35
2022/09/25 05:55:30;;;;;;;;;;;;;;;11.29;100.00;101669.31;5051087;28;19932;-34
2022/09/25 05:58:01;;;;;;;;;;;;;;;11.30;100.00;101673.78;5050043;28;19971;-34
2022/09/25 06:00:31;;;;;;;;;;;;;;;11.30;100.00;101676.56;5049034;28;19998;-34
2022/09/25 06:02:59;;;;;;;;;;;;;;;11.29;100.00;101675.72;5050243;28;19936;-34
2022/09/25 06:05:27;;;;;;;;;;;;;;;11.29;100.00;101681.31;5049782;28;19952;-35
2022/09/25 06:07:55;;;;;;;;;;;;;;;11.32;100.00;101685.50;5049828;28;19931;-34
2022/09/25 06:10:25;;;;;;;;;;;;;;;11.31;100.00;101687.47;5050253;28;19932;-34
2022/09/25 06:12:57;;;;;;;;;;;;;;;11.32;100.00;101680.75;5050746;28;19929;-34
2022/09/25 06:15:26;;;;;;;;;;;;;;;11.35;100.00;101682.97;5050967;28;19925;-35
2022/09/25 06:17:53;;;;;;;;;;;;;;;11.39;100.00;101683.22;5050355;28;20447;-34
2022/09/25 06:20:21;;;;;;;;;;;;;;;11.43;100.00;101686.28;5049864;28;19933;-34
2022/09/25 06:22:53;;;;;;;;;;;;;;;11.47;100.00;101681.81;5050927;28;19928;-34
2022/09/25 06:25:21;;;;;;;;;;;;;;;11.52;100.00;101679.00;5050213;28;19935;-34
2022/09/25 06:27:51;;;;;;;;;;;;;;;11.57;100.00;101687.38;5049677;28;20401;-34
2022/09/25 06:30:20;;;;;;;;;;;;;;;11.60;100.00;101684.81;5050119;28;19986;-35
2022/09/25 06:32:49;;;;;;;;;;;;;;;11.67;100.00;101682.56;5050629;28;19932;-34
2022/09/25 06:35:17;;;;;;;;;;;;;;;11.73;100.00;101681.44;5049743;28;19990;-35
2022/09/25 06:37:45;;;;;;;;;;;;;;;11.80;100.00;101683.91;5049862;28;19929;-34
2022/09/25 06:40:12;;;;;;;;;;;;;;;11.89;100.00;101676.63;5050195;28;19958;-34
2022/09/25 06:42:40;;;;;;;;;;;;;;;12.02;100.00;101677.94;5047825;28;19925;-34
2022/09/25 06:45:10;;;;;;;;;;;;;;;12.22;100.00;101675.00;5050044;28;20031;-34
2022/09/25 06:47:39;;;;;;;;;;;;;;;12.65;100.00;101678.88;5050105;28;19979;-34
2022/09/25 06:50:07;;;;;;;;;;;;;;;13.24;100.00;101672.16;5049147;28;19932;-34
2022/09/25 06:52:40;;;;;;;;;;;;;;;13.71;100.00;101674.13;5050097;28;19929;-34
2022/09/25 06:55:08;;;;;;;;;;;;;;;13.99;100.00;101668.66;5049307;28;20015;-35
2022/09/25 06:57:37;;;;;;;;;;;;;;;14.25;100.00;101669.97;5049734;28;19936;-34
2022/09/25 07:00:04;;;;;;;;;;;;;;;14.70;100.00;101670.41;5050182;28;19924;-33
2022/09/25 07:05:18;;;;;;;;;;;;;;;15.98;100.00;101673.22;5050168;28;19967;-33
2022/09/25 07:07:47;;;;;;;;;;;;;;;16.67;100.00;101676.66;5049862;28;19925;-33
2022/09/25 07:10:14;;;;;;;;;;;;;;;17.16;100.00;101674.81;5049554;28;19932;-34
2022/09/25 07:12:42;;;;;;;;;;;;;;;17.50;100.00;101674.13;5049805;28;19933;-34
2022/09/25 07:15:10;;;;;;;;;;;;;;;17.91;100.00;101676.63;5053970;28;19970;-34
2022/09/25 07:17:41;;;;;;;;;;;;;;;18.32;100.00;101675.34;5052863;28;20352;-33
2022/09/25 07:20:11;;;;;;;;;;;;;;;18.85;100.00;101681.50;5054011;28;20413;-34
2022/09/25 07:22:40;;;;;;;;;;;;;;;19.39;100.00;101669.66;5053356;28;19929;-34
2022/09/25 07:25:08;;;;;;;;;;;;;;;19.87;100.00;101672.97;5052959;28;20297;-34
2022/09/25 07:27:36;;;;;;;;;;;;;;;20.26;97.64;101673.69;5053648;28;20305;-34
2022/09/25 07:30:04;;;;;;;;;;;;;;;20.53;94.19;101675.19;5053744;28;19925;-35
2022/09/25 07:32:32;;;;;;;;;;;;;;;20.89;90.03;101669.66;5053585;28;19933;-34
2022/09/25 07:35:00;;;;;;;;;;;;;;;21.24;88.02;101672.97;5053914;28;20004;-34
2022/09/25 07:37:28;;;;;;;;;;;;;;;21.60;81.49;101666.50;5053459;28;19928;-32
2022/09/25 07:39:57;;;;;;;;;;;;;;;21.85;75.51;101664.47;5053186;28;19951;-34
2022/09/25 07:42:24;;;;;;;;;;;;;;;22.12;77.52;101668.63;5052598;28;19975;-34
2022/09/25 07:44:52;;;;;;;;;;;;;;;22.46;74.95;101666.41;5052543;28;19983;-34
2022/09/25 07:47:20;;;;;;;;;;;;;;;22.81;72.27;101670.31;5053871;28;19925;-34
2022/09/25 07:49:48;;;;;;;;;;;;;;;23.14;70.55;101675.75;5053943;28;20381;-34
2022/09/25 07:52:15;;;;;;;;;;;;;;;23.45;69.60;101665.56;5053144;28;19932;-34
2022/09/25 07:54:43;;;;;;;;;;;;;;;23.71;65.22;101663.00;5053913;28;20464;-34
2022/09/25 07:57:12;;;;;;;;;;;;;;;24.00;64.42;101670.22;5054112;28;19928;-34
2022/09/25 07:59:40;;;;;;;;;;;;;;;24.27;62.77;101665.59;5053387;28;19924;-34
2022/09/25 08:02:08;;;;;;;;;;;;;;;24.50;58.61;101665.69;5053929;28;20389;-34
2022/09/25 08:04:36;;;;;;;;;;;;;;;24.76;59.48;101668.69;5054310;28;19924;-34
2022/09/25 08:07:04;;;;;;;;;;;;;;;25.02;59.05;101673.72;5053552;28;19929;-34
2022/09/25 08:09:32;;;;;;;;;;;;;;;25.24;56.74;101670.06;5053936;28;20373;-34
2022/09/25 08:11:59;;;;;;;;;;;;;;;25.43;55.48;101672.03;5054231;28;19982;-34
2022/09/25 08:14:28;;;;;;;;;;;;;;;25.57;55.56;101663.72;5053296;28;20316;-37
2022/09/25 08:16:56;;;;;;;;;;;;;;;25.69;53.05;101666.41;5054013;28;19982;-34
2022/09/25 08:19:23;;;;;;;;;;;;;;;25.84;53.05;101661.72;5053593;28;19935;-34
2022/09/25 08:21:51;;;;;;;;;;;;;;;25.99;52.02;101660.75;5053389;28;19925;-34
2022/09/25 08:24:18;;;;;;;;;;;;;;;26.12;51.29;101655.63;5052572;28;19924;-39
2022/09/25 08:26:46;;;;;;;;;;;;;;;26.24;50.82;101663.97;5052725;28;20059;-35
2022/09/25 08:29:14;;;;;;;;;;;;;;;26.32;49.84;101659.22;5053284;28;19933;-35
2022/09/25 08:31:43;;;;;;;;;;;;;;;26.40;49.43;101664.63;5053960;28;19999;-34
2022/09/25 08:34:10;;;;;;;;;;;;;;;26.54;50.75;101666.06;5052729;28;20377;-36
2022/09/25 08:36:58;;;;;;;;;;;;;;;26.67;49.26;101671.13;5053478;28;20019;-34
2022/09/25 08:39:25;;;;;;;;;;;;;;;26.80;48.89;101663.09;5053154;28;20382;-38
2022/09/25 08:41:54;;;;;;;;;;;;;;;26.89;47.93;101662.81;5053291;28;19953;-34
2022/09/25 08:44:25;;;;;;;;;;;;;;;26.78;47.86;101654.06;5053273;28;19924;-37
2022/09/25 08:49:50;;;;;;;;;;;;;;;26.45;47.32;101663.47;5052325;28;19925;-34
2022/09/25 08:52:18;;;;;;;;;;;;;;;26.22;46.84;101656.97;5053497;28;19929;-37
2022/09/25 08:54:46;;;;;;;;;;;;;;;25.74;46.07;101648.09;5052340;28;20398;-35
2022/09/25 08:57:18;;;;;;;;;;;;;;;25.10;47.15;101661.22;5053355;28;19956;-34
2022/09/25 08:59:49;;;;;;;;;;;;;;;24.45;49.67;101657.41;5053075;28;19933;-35
2022/09/25 09:02:20;;;;;;;;;;;;;;;23.90;51.95;101654.53;5052392;28;19925;-36
2022/09/25 09:04:50;;;;;;;;;;;;;;;23.55;53.22;101660.19;5053106;28;20015;-35
2022/09/25 09:07:21;;;;;;;;;;;;;;;23.29;58.24;101663.53;5052976;28;20393;-34
2022/09/25 09:09:57;;;;;;;;;;;;;;;23.32;60.25;101661.97;5052212;28;19974;-34
2022/09/25 09:12:27;;;;;;;;;;;;;;;23.61;59.74;101661.53;5052971;28;19931;-34
2022/09/25 09:15:03;;;;;;;;;;;;;;;24.06;59.93;101663.03;5052688;28;20300;-34
2022/09/25 09:17:38;;;;;;;;;;;;;;;24.53;56.85;101657.19;5052326;28;19929;-36
2022/09/25 09:20:13;;;;;;;;;;;;;;;24.92;52.56;101655.16;5052483;28;20030;-34
2022/09/25 09:22:45;;;;;;;;;;;;;;;25.19;49.30;101647.50;5052729;28;19935;-34
2022/09/25 09:25:25;;;;;;;;;;;;;;;25.22;48.87;101654.50;5052121;28;19959;-34
2022/09/25 09:28:02;;;;;;;;;;;;;;;24.73;48.06;101658.03;5025861;28;19928;-34
2022/09/25 09:30:33;;;;;;;;;;;;;;;24.04;49.57;101668.28;5051979;28;19928;-34
2022/09/25 09:33:16;;;;;;;;;;;;;;;23.29;51.71;101662.72;5052662;28;19948;-35
2022/09/25 09:35:47;;;;;;;;;;;;;;;22.56;54.54;101669.59;5051749;28;19935;-36
2022/09/25 09:38:20;;;;;;;;;;;;;;;22.33;57.83;101657.94;5052040;28;19931;-34
2022/09/25 09:40:55;;;;;;;;;;;;;;;22.46;59.83;101663.56;5052462;28;19982;-35
2022/09/25 09:43:31;;;;;;;;;;;;;;;22.76;56.09;101673.41;5052331;28;19939;-33
2022/09/25 09:46:02;;;;;;;;;;;;;;;22.90;55.23;101661.63;5051480;28;19929;-37
2022/09/25 09:48:36;;;;;;;;;;;;;;;22.60;54.15;101672.50;5052346;28;20432;-35
2022/09/25 09:51:08;;;;;;;;;;;;;;;22.30;56.19;101670.00;5051413;28;20137;-34
2022/09/25 09:53:39;;;;;;;;;;;;;;;22.16;56.06;101665.91;5041920;28;19975;-35
2022/09/25 09:56:11;;;;;;;;;;;;;;;22.11;58.50;101675.50;5052166;28;20419;-34
2022/09/25 09:58:42;;;;;;;;;;;;;;;22.40;59.30;101670.69;5051112;28;20385;-37
2022/09/25 10:01:12;;;;;;;;;;;;;;;22.78;56.40;101670.25;5052078;28;19932;-36
2022/09/25 10:04:04;;;;;;;;;;;;;;;23.19;55.72;101657.53;5042133;28;19932;-37
2022/09/25 10:06:34;;;;;;;;;;;;;;;23.58;54.17;101665.13;5051299;28;19929;-35
2022/09/25 10:09:02;;;;;;;;;;;;;;;23.98;52.94;101672.63;5051860;28;20290;-39
2022/09/25 10:11:31;;;;;;;;;;;;;;;24.27;51.42;101668.44;5051683;28;20369;-36
2022/09/25 10:14:02;;;;;;;;;;;;;;;24.56;49.02;101664.19;5051059;28;20389;-35
2022/09/25 10:16:30;;;;;;;;;;;;;;;24.75;47.52;101663.34;5051786;28;19929;-35
2022/09/25 10:19:01;;;;;;;;;;;;;;;24.96;46.12;101661.78;5047864;28;20199;-35
2022/09/25 10:21:32;;;;;;;;;;;;;;;25.11;47.22;101660.03;5051165;28;20404;-38
2022/09/25 10:24:02;;;;;;;;;;;;;;;25.26;47.92;101661.13;5051019;28;19932;-37
2022/09/25 10:26:30;;;;;;;;;;;;;;;25.58;47.53;101661.69;5050993;28;19932;-35
2022/09/25 10:28:58;;;;;;;;;;;;;;;25.73;45.10;101664.44;5051582;28;19925;-37
2022/09/25 10:31:28;;;;;;;;;;;;;;;25.58;45.80;101659.63;5051712;28;19971;-37
2022/09/25 10:34:03;;;;;;;;;;;;;;;25.19;45.62;101661.78;5050566;28;19936;-36
2022/09/25 10:36:34;;;;;;;;;;;;;;;24.84;46.51;101655.38;5051685;28;19928;-38
2022/09/25 10:39:03;;;;;;;;;;;;;;;24.57;47.95;101651.56;5051404;28;19925;-35
2022/09/25 10:41:51;;;;;;;;;;;;;;;24.58;50.13;101644.66;5050882;28;19967;-35
2022/09/25 10:44:20;;;;;;;;;;;;;;;24.71;48.70;101641.28;5051094;28;19924;-36
2022/09/25 10:52:44;;;;;;;;;;;;;;;25.39;45.84;101640.53;5051362;28;19929;-34
2022/09/25 10:55:13;;;;;;;;;;;;;;;25.48;45.73;101630.88;5050988;28;19924;-33
2022/09/25 10:57:41;;;;;;;;;;;;;;;25.57;46.54;101626.56;5051567;28;19924;-35
2022/09/25 11:00:19;;;;;;;;;;;;;;;25.69;45.58;101626.38;5051022;28;19932;-34
2022/09/25 11:02:47;;;;;;;;;;;;;;;25.82;44.55;101618.41;5050670;28;19928;-34
2022/09/25 11:05:17;;;;;;;;;;;;;;;25.85;44.33;101623.34;5050693;28;19933;-34
2022/09/25 11:07:51;;;;;;;;;;;;;;;25.90;43.18;101613.63;5051526;28;19924;-38
2022/09/25 11:10:20;;;;;;;;;;;;;;;25.79;41.94;101609.75;5050632;28;20000;-35
2022/09/25 11:12:48;;;;;;;;;;;;;;;25.56;44.10;101606.94;5050795;28;20531;-34
2022/09/25 11:15:18;;;;;;;;;;;;;;;25.54;45.16;101601.59;5050953;28;19935;-35
2022/09/25 11:17:49;;;;;;;;;;;;;;;25.62;43.15;101591.09;5051043;28;19929;-34
2022/09/25 11:20:21;;;;;;;;;;;;;;;25.71;43.41;101597.41;5051395;28;19935;-35
2022/09/25 11:22:54;;;;;;;;;;;;;;;25.73;41.68;101595.81;5050208;28;19935;-34
2022/09/25 11:25:25;;;;;;;;;;;;;;;25.71;42.29;101592.50;5051037;28;19929;-34
2022/09/25 11:27:57;;;;;;;;;;;;;;;25.73;42.03;101592.97;5051094;28;19925;-34
2022/09/25 11:30:25;;;;;;;;;;;;;;;25.70;40.83;101590.88;5050090;28;19924;-37
2022/09/25 11:32:58;;;;;;;;;;;;;;;25.66;41.13;101587.13;5051186;28;20015;-33
2022/09/25 11:35:35;;;;;;;;;;;;;;;25.59;41.55;101586.13;5050941;28;19934;-36
2022/09/25 11:38:11;;;;;;;;;;;;;;;25.60;43.10;101594.34;5050027;28;19928;-35
2022/09/25 11:43:35;;;;;;;;;;;;;;;25.56;43.75;101578.34;5050419;28;20297;-34
2022/09/25 11:46:06;;;;;;;;;;;;;;;25.50;44.19;101582.75;5050776;28;19951;-38
2022/09/25 11:48:42;;;;;;;;;;;;;;;25.41;41.55;101586.69;5051000;28;20385;-35
2022/09/25 11:51:18;;;;;;;;;;;;;;;25.25;43.31;101588.84;5049748;28;19925;-35
2022/09/25 11:53:54;;;;;;;;;;;;;;;25.20;43.77;101582.63;5050655;28;19983;-35
2022/09/25 11:56:36;;;;;;;;;;;;;;;25.12;43.99;101580.88;5050451;28;20042;-34
2022/09/25 11:59:14;;;;;;;;;;;;;;;25.01;42.64;101572.94;5031236;28;19979;-33
2022/09/25 12:01:45;;;;;;;;;;;;;;;24.86;43.55;101576.69;5050007;28;20447;-34
2022/09/25 12:04:39;;;;;;;;;;;;;;;24.77;43.80;101575.31;5035098;28;19925;-35
2022/09/25 12:07:23;;;;;;;;;;;;;;;24.60;43.07;101568.03;5028427;28;20281;-37
2022/09/25 12:10:02;;;;;;;;;;;;;;;24.42;41.58;101566.84;5054268;28;20298;-34
2022/09/25 12:12:33;;;;;;;;;;;;;;;24.24;42.76;101567.31;5052904;28;20019;-33
2022/09/25 12:15:05;;;;;;;;;;;;;;;24.15;43.18;101565.88;5054275;28;19933;-35
2022/09/25 12:17:38;;;;;;;;;;;;;;;24.03;42.32;101564.78;5053948;28;19924;-33
2022/09/25 12:20:15;;;;;;;;;;;;;;;23.88;42.94;101554.28;5053430;28;19929;-33
2022/09/25 12:22:48;;;;;;;;;;;;;;;23.71;42.64;101566.09;5053347;28;20350;-34
2022/09/25 12:25:25;;;;;;;;;;;;;;;23.50;43.32;101554.16;5054040;28;19932;-35
2022/09/25 12:27:57;;;;;;;;;;;;;;;23.29;44.36;101549.59;5052935;28;19928;-33
2022/09/25 12:30:28;;;;;;;;;;;;;;;23.20;45.02;101545.28;5054035;28;19932;-33
2022/09/25 12:33:07;;;;;;;;;;;;;;;23.19;46.17;101553.00;5052545;28;20444;-34
2022/09/25 12:35:43;;;;;;;;;;;;;;;23.13;45.82;101545.94;5053935;28;19928;-34
2022/09/25 12:38:16;;;;;;;;;;;;;;;22.98;45.69;101547.59;5053274;28;19924;-34
2022/09/25 12:40:48;;;;;;;;;;;;;;;22.84;45.61;101550.06;5053086;28;20308;-34
2022/09/25 12:43:20;;;;;;;;;;;;;;;22.78;47.15;101545.81;5053190;28;19928;-34
2022/09/25 12:45:49;;;;;;;;;;;;;;;22.75;47.54;101538.00;5053784;28;19933;-34
2022/09/25 12:48:21;;;;;;;;;;;;;;;22.68;46.73;101549.19;5052773;28;19974;-34
2022/09/25 12:50:54;;;;;;;;;;;;;;;22.56;46.07;101543.59;5033703;28;19928;-35
2022/09/25 12:53:24;;;;;;;;;;;;;;;22.52;46.22;101542.66;5048773;28;19979;-34
2022/09/25 12:55:55;;;;;;;;;;;;;;;22.41;46.40;101547.19;5052481;28;19929;-34
2022/09/25 12:58:28;;;;;;;;;;;;;;;22.31;45.82;101548.56;5052930;28;20417;-37
2022/09/25 13:00:59;;;;;;;;;;;;;;;22.23;47.21;101538.16;5052495;28;19928;-32
2022/09/25 13:03:34;;;;;;;;;;;;;;;22.24;47.30;101539.81;5052916;28;20377;-35
2022/09/25 13:06:07;;;;;;;;;;;;;;;22.16;46.27;101538.81;5053168;28;19925;-35